Historyczne dane pomiarowe

Dodano dane terminowe – wersja testowa.

Dane z okresu 1951-2019

Wersja bazy: 1.34 [2019-03-16, lista zmian], aktualizacja planowana na 2019-04-15

Dane meteo z obszaru Polski uzyskane na podstawie danych udostępnionych przez Instytut Meteorologii i Gospodarki Wodnej – Państwowy Instytut Badawczy.

 

Wybierz Datę:    

       

TemperaturaWilgotnośćWiatrCiśnienieOpadyŚniegCzas trwania zjawisk
 Stacja t tx tn tng RH VA  wxwx mslp ppp RRR   cm mm wxwxwxwxwxwxwx
1959-06-13 18.0 26.5 13.7 13.0 73.5- 4.7 4.0---- 0.0------------
1959-06-14 16.1 22.3 10.4 8.5 43.8- 3.7 4.0---- 0.0------------
1959-06-15 16.3 24.3 4.5 1.5 54.0- 2.0 5.3---- 0.1------------
1959-06-16 11.2 15.9 8.4 8.0 73.0- 6.7 4.0---- 1.7------------
1959-06-17 15.8 22.4 7.2 5.7 59.5- 5.0 3.7---- 0.0------------
1959-06-18 21.1 29.2 8.2 5.3 49.0- 1.0 2.3---- 0.1------------
1959-06-19 15.9 26.4 13.2 8.2 52.5- 4.0 5.0---- 0.0------------
1959-06-20 15.2 20.4 7.3 4.3 43.0- 1.3 1.7---- 0.0------------
1959-06-21 18.2 24.1 2.1 -2.0 40.8- 0.0 2.0---- 0.0------------
1959-06-22 15.7 22.8 8.8 5.5 56.5- 0.3 4.3---- 0.0------------
1959-06-23 15.2 21.0 7.7 6.7 50.5- 2.0 4.3---- 0.0------------
1959-06-24 17.1 23.6 7.7 4.7 61.3- 2.7 3.3---- 0.0------------
1959-06-25 17.8 23.9 8.9 7.5 55.8- 2.0 2.0---- 0.3------------
1959-06-26 18.9 25.8 11.9 11.0 64.3- 3.0 3.0---- 3.0------------
1959-06-27 21.4 27.5 9.3 5.9 56.0- 2.3 2.0---- 0.0------------
1959-06-28 16.8 23.3 12.8 8.2 85.5- 7.3 1.0---- 5.7------------
1959-06-29 16.8 22.4 11.6 11.0 86.5- 7.0 3.0---- 1.7------------
1959-06-30 16.5 20.4 13.0 12.5 81.8- 7.0 2.0---- 2.3------------
1959-07-01 16.1 21.8 12.7 11.8 84.3- 6.0 3.3---- 0.0------------
1959-07-02 14.1 17.5 12.1 11.3 91.8- 6.7 5.3---- 6.6------------
1959-07-03 15.8 20.2 10.4 9.0 81.0- 6.0 3.7---- 1.5------------
1959-07-04 17.2 20.9 14.6 14.1 84.0- 5.7 3.3---- 0.0------------
1959-07-05 20.1 25.5 7.9 6.2 65.5- 1.7 0.7---- 0.0------------
1959-07-06 21.8 27.4 8.3 6.5 59.0- 2.7 0.7---- 0.0------------
1959-07-07 21.0 28.8 13.6 11.5 62.8- 2.0 4.0---- 0.0------------
1959-07-08 22.8 29.2 10.9 9.5 60.3- 0.0 2.3---- 0.0------------
1959-07-09 26.0 33.5 13.2 10.0 54.0- 1.0 1.7---- 0.0------------
1959-07-10 28.4 36.8 17.1 13.0 47.3- 0.0 3.7---- 0.0------------
1959-07-11 29.5 38.3 17.3 13.0 47.8- 0.3 2.0---- 0.0------------
1959-07-12 29.1 37.4 17.6 13.5 47.8- 2.0 7.0---- 0.0------------
74.9 ms

 

Źródłem pochodzenia danych jest Instytut Meteorologii i Gospodarki Wodnej – Państwowy Instytut Badawczy. Dane Instytutu Meteorologii i Gospodarki Wodnej – Państwowego Instytutu Badawczego zostały przetworzone.

Dane źródłowe można odnaleźć na stronie https://dane.imgw.pl